Time;durP1;ratioP1;P1;durP2;ratioP2;P2;SDS_P1;SDS_P2;PMS_P1;PMS_P2;Temp;Humidity;BMP_temperature;BMP_pressure;BME280_temperature;BME280_humidity;BME280_pressure;Samples;Min_cycle;Max_cycle;Signal;HPM_P1;HPM_P2
2023/03/05 00:01:45;;;;;;;;;;;;;;;-2.25;69.94;100617.89;105111;1289;60359;-76
2023/03/05 00:04:31;;;;;;;;;;;;;;;-2.27;69.99;100611.73;105075;1288;74845;-76
2023/03/05 00:07:17;;;;;;;;;;;;;;;-2.28;70.09;100607.81;105150;1289;66845;-76
2023/03/05 00:10:04;;;;;;;;;;;;;;;-2.30;70.07;100605.89;105170;1288;71203;-76
2023/03/05 00:12:50;;;;;;;;;;;;;;;-2.32;69.99;100604.48;105058;1289;62104;-75
2023/03/05 00:15:40;;;;;;;;;;;;;;;-2.34;70.14;100602.21;105085;1288;60681;-75
2023/03/05 00:18:26;;;;;;;;;;;;;;;-2.35;70.13;100596.45;104995;1291;74647;-75
2023/03/05 00:21:19;;;;;;;;;;;;;;;-2.33;70.24;100595.66;105061;1291;67430;-75
2023/03/05 00:24:07;;;;;;;;;;;;;;;-2.32;70.13;100589.95;104978;1288;71163;-76
2023/03/05 00:26:54;;;;;;;;;;;;;;;-2.32;70.16;100588.96;105108;1288;62037;-75
2023/03/05 00:29:40;;;;;;;;;;;;;;;-2.30;70.17;100588.33;105014;1288;60137;-75
2023/03/05 00:32:26;;;;;;;;;;;;;;;-2.30;70.20;100584.95;105095;1288;73229;-75
2023/03/05 00:35:13;;;;;;;;;;;;;;;-2.31;70.14;100583.90;105032;1288;67109;-75
2023/03/05 00:37:59;;;;;;;;;;;;;;;-2.33;70.11;100582.17;105070;1294;72054;-75
2023/03/05 00:40:45;;;;;;;;;;;;;;;-2.34;70.15;100578.59;105024;1291;61800;-75
2023/03/05 00:43:31;;;;;;;;;;;;;;;-2.36;70.14;100575.98;105031;1291;62057;-75
2023/03/05 00:46:17;;;;;;;;;;;;;;;-2.37;70.15;100577.96;105042;1288;74323;-75
2023/03/05 00:49:04;;;;;;;;;;;;;;;-2.38;70.14;100576.41;105061;1288;67985;-75
2023/03/05 00:51:50;;;;;;;;;;;;;;;-2.39;70.29;100573.68;105038;1288;71166;-75
2023/03/05 00:54:36;;;;;;;;;;;;;;;-2.39;70.24;100568.27;104838;1288;61007;-75
2023/03/05 00:57:22;;;;;;;;;;;;;;;-2.42;70.27;100566.17;105061;1291;61944;-75
2023/03/05 01:00:09;;;;;;;;;;;;;;;-2.42;70.32;100565.15;105023;1288;72971;-75
2023/03/05 01:02:55;;;;;;;;;;;;;;;-2.41;70.31;100560.64;104936;1288;68128;-75
2023/03/05 01:05:42;;;;;;;;;;;;;;;-2.40;70.37;100556.60;105038;1288;72298;-76
2023/03/05 01:08:28;;;;;;;;;;;;;;;-2.40;70.32;100554.55;104995;1288;61952;-76
2023/03/05 01:11:14;;;;;;;;;;;;;;;-2.40;70.40;100552.39;105053;1290;62213;-76
2023/03/05 01:14:00;;;;;;;;;;;;;;;-2.40;70.34;100549.34;104991;1288;75357;-74
2023/03/05 01:16:46;;;;;;;;;;;;;;;-2.38;70.46;100550.58;105147;1291;68178;-75
2023/03/05 01:19:32;;;;;;;;;;;;;;;-2.37;70.39;100551.48;105063;1291;72615;-74
2023/03/05 01:22:18;;;;;;;;;;;;;;;-2.39;70.40;100546.67;105094;1292;63001;-74
2023/03/05 01:25:05;;;;;;;;;;;;;;;-2.39;70.49;100547.85;105017;1288;59935;-75
2023/03/05 01:27:51;;;;;;;;;;;;;;;-2.39;70.34;100542.30;105204;1290;73891;-75
2023/03/05 01:30:37;;;;;;;;;;;;;;;-2.41;70.44;100535.83;105093;1290;68004;-75
2023/03/05 01:33:23;;;;;;;;;;;;;;;-2.40;70.44;100533.13;105069;1290;71719;-75
2023/03/05 01:36:13;;;;;;;;;;;;;;;-2.39;70.44;100528.80;105015;1291;62035;-75
2023/03/05 01:39:00;;;;;;;;;;;;;;;-2.38;70.49;100526.45;105039;1288;60251;-75
2023/03/05 01:41:46;;;;;;;;;;;;;;;-2.38;70.42;100522.23;105016;1288;75308;-75
2023/03/05 01:44:32;;;;;;;;;;;;;;;-2.37;70.42;100516.52;105087;1293;67256;-75
2023/03/05 01:47:19;;;;;;;;;;;;;;;-2.37;70.49;100514.66;104952;1288;71729;-75
2023/03/05 01:50:07;;;;;;;;;;;;;;;-2.37;70.53;100509.60;105010;1289;60486;-75
2023/03/05 01:53:11;;;;;;;;;;;;;;;-2.37;70.51;100507.40;105054;1292;61951;-75
2023/03/05 01:55:57;;;;;;;;;;;;;;;-2.38;70.47;100504.52;105105;1287;74806;-75
2023/03/05 01:58:44;;;;;;;;;;;;;;;-2.38;70.44;100501.30;105076;1288;67255;-75
2023/03/05 02:01:31;;;;;;;;;;;;;;;-2.37;70.50;100496.27;105150;1290;71737;-75
2023/03/05 02:04:18;;;;;;;;;;;;;;;-2.38;70.43;100491.71;105074;1288;62488;-75
2023/03/05 02:07:06;;;;;;;;;;;;;;;-2.37;70.46;100482.10;105159;1288;60410;-75
2023/03/05 02:09:52;;;;;;;;;;;;;;;-2.36;70.40;100474.89;105002;1288;75030;-75
2023/03/05 02:12:38;;;;;;;;;;;;;;;-2.33;70.54;100477.83;104961;1288;69932;-75
2023/03/05 02:15:24;;;;;;;;;;;;;;;-2.31;70.49;100476.39;105061;1290;71462;-75
2023/03/05 02:18:10;;;;;;;;;;;;;;;-2.26;70.61;100474.03;105046;1288;61872;-75
2023/03/05 02:20:56;;;;;;;;;;;;;;;-2.21;70.68;100479.76;105115;1289;64974;-75
2023/03/05 02:23:42;;;;;;;;;;;;;;;-2.15;70.63;100479.27;105150;1288;74687;-75
2023/03/05 02:26:28;;;;;;;;;;;;;;;-2.11;70.64;100470.46;105132;1288;70084;-75
2023/03/05 02:29:18;;;;;;;;;;;;;;;-2.07;70.72;100469.75;105175;1288;71389;-75
2023/03/05 02:32:04;;;;;;;;;;;;;;;-2.03;70.61;100467.33;105027;1287;62095;-75
2023/03/05 02:34:51;;;;;;;;;;;;;;;-1.97;70.76;100462.61;105117;1287;62098;-75
2023/03/05 02:37:37;;;;;;;;;;;;;;;-1.91;70.72;100456.21;105151;1293;73470;-75
2023/03/05 02:40:23;;;;;;;;;;;;;;;-1.86;70.77;100450.30;105069;1288;71899;-75
2023/03/05 02:43:09;;;;;;;;;;;;;;;-1.79;70.71;100438.36;97898;1293;5003710;-75
2023/03/05 02:45:55;;;;;;;;;;;;;;;-1.74;70.68;100438.83;106135;1288;60399;-75
2023/03/05 02:48:41;;;;;;;;;;;;;;;-1.70;70.72;100437.27;106270;1288;60003;-75
2023/03/05 02:51:27;;;;;;;;;;;;;;;-1.67;70.70;100434.34;106231;1288;74148;-75
2023/03/05 02:54:13;;;;;;;;;;;;;;;-1.64;70.69;100433.25;105998;1288;259705;-76
2023/03/05 02:56:58;;;;;;;;;;;;;;;-1.59;70.75;100428.64;106107;1291;71174;-76
2023/03/05 02:59:45;;;;;;;;;;;;;;;-1.56;70.73;100428.90;106108;1288;60023;-76
2023/03/05 03:02:31;;;;;;;;;;;;;;;-1.51;70.72;100424.46;106136;1288;60446;-76
2023/03/05 03:05:17;;;;;;;;;;;;;;;-1.47;70.78;100417.84;106060;1288;75596;-76
2023/03/05 03:08:03;;;;;;;;;;;;;;;-1.41;70.75;100414.61;106086;1288;68634;-75
2023/03/05 03:10:49;;;;;;;;;;;;;;;-1.37;70.83;100411.52;106168;1292;73804;-75
2023/03/05 03:13:35;;;;;;;;;;;;;;;-1.34;70.78;100405.37;106067;1289;59904;-76
2023/03/05 03:16:21;;;;;;;;;;;;;;;-1.31;70.74;100403.23;106095;1288;60082;-76
2023/03/05 03:19:07;;;;;;;;;;;;;;;-1.28;70.82;100401.63;106168;1288;74174;-76
2023/03/05 03:21:53;;;;;;;;;;;;;;;-1.25;70.74;100397.83;106089;1288;69682;-75
2023/03/05 03:24:40;;;;;;;;;;;;;;;-1.23;70.75;100391.30;106237;1290;72171;-75
2023/03/05 03:27:26;;;;;;;;;;;;;;;-1.21;70.73;100396.44;106133;1288;60327;-75
2023/03/05 03:30:13;;;;;;;;;;;;;;;-1.18;70.81;100389.23;106100;1288;59910;-76
2023/03/05 03:32:59;;;;;;;;;;;;;;;-1.14;70.80;100385.28;106137;1289;75394;-76
2023/03/05 03:35:45;;;;;;;;;;;;;;;-1.12;70.84;100382.98;106191;1288;68301;-76
2023/03/05 03:38:31;;;;;;;;;;;;;;;-1.09;70.83;100374.78;106123;1294;71157;-76
2023/03/05 03:41:17;;;;;;;;;;;;;;;-1.05;70.85;100367.77;106159;1289;60372;-75
2023/03/05 03:44:06;;;;;;;;;;;;;;;-1.03;70.81;100362.73;106175;1290;59747;-75
2023/03/05 03:46:53;;;;;;;;;;;;;;;-1.00;70.78;100358.06;106174;1289;75442;-76
2023/03/05 03:49:39;;;;;;;;;;;;;;;-0.99;70.82;100349.98;106186;1288;69417;-76
2023/03/05 03:52:25;;;;;;;;;;;;;;;-0.96;70.81;100347.69;106271;1289;72130;-76
2023/03/05 03:55:11;;;;;;;;;;;;;;;-0.94;70.79;100341.14;106092;1293;59706;-76
2023/03/05 03:57:57;;;;;;;;;;;;;;;-0.91;70.83;100336.65;106190;1289;60398;-76
2023/03/05 04:00:43;;;;;;;;;;;;;;;-0.87;70.86;100337.42;106121;1288;74285;-76
2023/03/05 04:03:29;;;;;;;;;;;;;;;-0.83;70.86;100333.98;106131;1288;67199;-76
2023/03/05 04:06:15;;;;;;;;;;;;;;;-0.80;70.84;100329.31;106093;1289;71128;-76
2023/03/05 04:09:00;;;;;;;;;;;;;;;-0.79;70.86;100323.25;106076;1292;60155;-76
2023/03/05 04:11:46;;;;;;;;;;;;;;;-0.78;70.84;100324.13;106172;1291;60053;-76
2023/03/05 04:14:32;;;;;;;;;;;;;;;-0.76;70.91;100317.89;106055;1288;75376;-76
2023/03/05 04:17:19;;;;;;;;;;;;;;;-0.75;70.90;100309.46;106183;1291;67616;-76
2023/03/05 04:20:07;;;;;;;;;;;;;;;-0.74;70.89;100300.20;106049;1293;71200;-76
2023/03/05 04:22:52;;;;;;;;;;;;;;;-0.73;70.94;100296.84;106151;1289;59864;-76
2023/03/05 04:25:38;;;;;;;;;;;;;;;-0.70;70.92;100292.33;106201;1292;59922;-76
2023/03/05 04:28:24;;;;;;;;;;;;;;;-0.68;70.93;100293.39;106221;1288;76254;-76
2023/03/05 04:31:10;;;;;;;;;;;;;;;-0.68;70.97;100285.96;106159;1292;68676;-76
2023/03/05 04:33:56;;;;;;;;;;;;;;;-0.67;71.00;100284.96;106077;1287;72247;-76
2023/03/05 04:36:42;;;;;;;;;;;;;;;-0.64;70.96;100280.63;106149;1288;59823;-76
2023/03/05 04:39:28;;;;;;;;;;;;;;;-0.63;70.99;100276.75;106181;1289;59671;-76
2023/03/05 04:42:13;;;;;;;;;;;;;;;-0.62;71.02;100275.77;106142;1287;74144;-76
2023/03/05 04:44:59;;;;;;;;;;;;;;;-0.60;70.99;100267.70;106118;1288;66433;-76
2023/03/05 04:47:45;;;;;;;;;;;;;;;-0.58;71.03;100264.34;106064;1288;71294;-76
2023/03/05 04:50:31;;;;;;;;;;;;;;;-0.56;70.99;100264.04;106153;1288;59749;-76
2023/03/05 04:53:17;;;;;;;;;;;;;;;-0.54;71.01;100263.92;105541;1288;59926;-75
2023/03/05 04:56:03;;;;;;;;;;;;;;;-0.54;71.09;100260.22;105062;1289;75531;-75
2023/03/05 04:58:49;;;;;;;;;;;;;;;-0.54;71.08;100259.70;105038;1289;67494;-75
2023/03/05 05:01:36;;;;;;;;;;;;;;;-0.54;71.05;100262.58;105130;1291;74041;-75
2023/03/05 05:04:22;;;;;;;;;;;;;;;-0.54;71.08;100263.27;105124;1292;62118;-75
2023/03/05 05:07:08;;;;;;;;;;;;;;;-0.54;71.10;100263.77;105109;1289;61864;-75
2023/03/05 05:09:54;;;;;;;;;;;;;;;-0.54;71.06;100261.41;105107;1291;74732;-75
2023/03/05 05:12:40;;;;;;;;;;;;;;;-0.55;71.08;100260.36;105112;1290;68269;-75
2023/03/05 05:15:26;;;;;;;;;;;;;;;-0.54;71.07;100259.03;105062;1287;71215;-75
2023/03/05 05:18:12;;;;;;;;;;;;;;;-0.55;71.08;100256.64;105013;1290;61720;-75
2023/03/05 05:20:58;;;;;;;;;;;;;;;-0.56;71.17;100254.58;105165;1288;60635;-75
2023/03/05 05:23:45;;;;;;;;;;;;;;;-0.55;71.10;100256.98;105065;1288;75428;-75
2023/03/05 05:26:31;;;;;;;;;;;;;;;-0.54;71.14;100254.62;105190;1288;68680;-75
2023/03/05 05:29:17;;;;;;;;;;;;;;;-0.52;71.13;100249.73;105159;1288;72493;-75
2023/03/05 05:32:03;;;;;;;;;;;;;;;-0.53;71.10;100244.65;105172;1291;62063;-75
2023/03/05 05:34:58;;;;;;;;;;;;;;;-0.53;71.14;100242.13;105073;1287;62082;-75
2023/03/05 05:37:44;;;;;;;;;;;;;;;-0.54;71.10;100237.36;105020;1288;75331;-75
2023/03/05 05:40:30;;;;;;;;;;;;;;;-0.52;71.13;100234.67;105138;1288;67940;-75
2023/03/05 05:43:16;;;;;;;;;;;;;;;-0.52;71.10;100230.95;105142;1290;74625;-75
2023/03/05 05:46:04;;;;;;;;;;;;;;;-0.51;71.11;100232.48;105122;1289;60214;-75
2023/03/05 05:48:50;;;;;;;;;;;;;;;-0.50;71.08;100233.52;105069;1292;62003;-75
2023/03/05 05:51:36;;;;;;;;;;;;;;;-0.51;71.16;100240.10;105434;1288;233736;-75
2023/03/05 05:54:22;;;;;;;;;;;;;;;-0.52;71.14;100240.10;106215;1287;68415;-75
2023/03/05 05:57:08;;;;;;;;;;;;;;;-0.54;71.18;100239.91;106020;1287;71292;-76
2023/03/05 05:59:54;;;;;;;;;;;;;;;-0.54;71.16;100238.04;106231;1288;60142;-76
2023/03/05 06:02:41;;;;;;;;;;;;;;;-0.53;71.19;100236.20;106123;1288;60049;-76
2023/03/05 06:05:27;;;;;;;;;;;;;;;-0.49;71.15;100232.19;105758;1292;74233;-75
2023/03/05 06:08:13;;;;;;;;;;;;;;;-0.47;71.19;100227.67;105055;1289;68337;-75
2023/03/05 06:10:59;;;;;;;;;;;;;;;-0.45;71.21;100226.86;105054;1287;72402;-75
2023/03/05 06:13:46;;;;;;;;;;;;;;;-0.43;71.15;100225.39;105071;1290;61993;-75
2023/03/05 06:16:33;;;;;;;;;;;;;;;-0.40;71.26;100224.79;105126;1288;62421;-75
2023/03/05 06:19:19;;;;;;;;;;;;;;;-0.38;71.23;100219.41;105071;1291;77072;-75
2023/03/05 06:22:05;;;;;;;;;;;;;;;-0.35;71.30;100220.98;105074;1289;68458;-75
2023/03/05 06:24:51;;;;;;;;;;;;;;;-0.33;71.31;100222.23;105167;1290;73953;-75
2023/03/05 06:27:37;;;;;;;;;;;;;;;-0.30;71.38;100220.92;105152;1288;62059;-75
2023/03/05 06:30:23;;;;;;;;;;;;;;;-0.29;71.38;100219.27;105090;1288;61916;-75
2023/03/05 06:33:10;;;;;;;;;;;;;;;-0.27;71.36;100221.16;105122;1287;76836;-75
2023/03/05 06:35:56;;;;;;;;;;;;;;;-0.25;71.37;100224.58;105154;1288;67876;-75
2023/03/05 06:38:42;;;;;;;;;;;;;;;-0.24;71.43;100234.27;105132;1288;74026;-75
2023/03/05 06:41:29;;;;;;;;;;;;;;;-0.21;71.43;100236.70;105060;1288;62181;-75
2023/03/05 06:44:15;;;;;;;;;;;;;;;-0.19;71.43;100237.25;104960;1289;60458;-75
2023/03/05 06:47:03;;;;;;;;;;;;;;;-0.18;71.50;100236.42;104949;1288;74650;-75
2023/03/05 06:49:49;;;;;;;;;;;;;;;-0.18;71.50;100235.93;104973;1288;67397;-75
2023/03/05 06:52:37;;;;;;;;;;;;;;;-0.17;71.55;100237.82;105111;1288;72100;-75
2023/03/05 06:55:23;;;;;;;;;;;;;;;-0.16;71.61;100235.13;105129;1288;60059;-75
2023/03/05 06:58:09;;;;;;;;;;;;;;;-0.16;71.72;100234.44;105097;1287;61950;-75
2023/03/05 07:00:55;;;;;;;;;;;;;;;-0.13;71.76;100230.44;105090;1288;75308;-75
2023/03/05 07:03:42;;;;;;;;;;;;;;;-0.10;71.85;100228.63;105009;1288;67214;-75
2023/03/05 07:06:31;;;;;;;;;;;;;;;-0.08;71.93;100229.54;105092;1289;74036;-75
2023/03/05 07:09:18;;;;;;;;;;;;;;;-0.05;72.07;100224.00;105058;1288;61994;-75
2023/03/05 07:12:04;;;;;;;;;;;;;;;-0.03;72.01;100220.65;104891;1287;60629;-76
2023/03/05 07:14:51;;;;;;;;;;;;;;;-0.03;72.01;100218.29;104969;1292;76868;-76
2023/03/05 07:17:37;;;;;;;;;;;;;;;-0.02;72.13;100221.52;104878;1288;66468;-76
2023/03/05 07:20:23;;;;;;;;;;;;;;;-0.01;72.15;100222.40;105109;1288;72443;-75
2023/03/05 07:23:09;;;;;;;;;;;;;;;0.02;72.13;100217.33;105015;1288;62025;-75
2023/03/05 07:25:56;;;;;;;;;;;;;;;0.05;72.23;100216.03;105013;1288;61915;-75
2023/03/05 07:28:42;;;;;;;;;;;;;;;0.07;72.22;100207.95;104991;1288;76854;-75
2023/03/05 07:31:31;;;;;;;;;;;;;;;0.10;72.24;100203.25;104916;1289;67258;-76
2023/03/05 07:34:17;;;;;;;;;;;;;;;0.12;72.24;100198.36;104918;1287;72957;-76
2023/03/05 07:37:03;;;;;;;;;;;;;;;0.11;72.27;100198.36;105002;1287;61756;-76
2023/03/05 07:39:49;;;;;;;;;;;;;;;0.11;72.27;100194.13;104922;1294;61976;-76
2023/03/05 07:42:35;;;;;;;;;;;;;;;0.10;72.30;100192.05;104875;1289;74312;-76
2023/03/05 07:45:21;;;;;;;;;;;;;;;0.09;72.33;100186.80;104953;1288;67867;-75
2023/03/05 07:48:11;;;;;;;;;;;;;;;0.09;72.37;100184.59;105027;1288;72772;-75
2023/03/05 07:51:03;;;;;;;;;;;;;;;0.10;72.40;100180.55;104986;1288;62090;-79
2023/03/05 07:53:50;;;;;;;;;;;;;;;0.11;72.50;100179.38;104908;1288;62085;-78
2023/03/05 07:56:36;;;;;;;;;;;;;;;0.11;72.40;100182.77;104883;1288;74006;-78
2023/03/05 07:59:22;;;;;;;;;;;;;;;0.12;72.45;100173.45;105049;1287;71470;-78
2023/03/05 08:02:12;;;;;;;;;;;;;;;0.10;72.46;100170.72;105055;1288;72433;-78
2023/03/05 08:04:58;;;;;;;;;;;;;;;0.11;72.57;100171.74;105110;1288;61943;-78
2023/03/05 08:07:44;;;;;;;;;;;;;;;0.10;72.54;100170.55;105086;1293;63416;-76
2023/03/05 08:10:30;;;;;;;;;;;;;;;0.10;72.63;100169.52;105107;1288;74198;-76
2023/03/05 08:13:16;;;;;;;;;;;;;;;0.11;72.62;100168.36;105088;1288;68084;-76
2023/03/05 08:16:03;;;;;;;;;;;;;;;0.14;72.75;100161.30;105087;1288;72173;-76
2023/03/05 08:18:49;;;;;;;;;;;;;;;0.19;72.80;100157.84;105141;1288;61588;-76
2023/03/05 08:21:36;;;;;;;;;;;;;;;0.23;72.78;100156.21;105093;1287;61987;-76
2023/03/05 08:24:28;;;;;;;;;;;;;;;0.27;72.77;100156.29;105078;1288;74161;-76
2023/03/05 08:27:14;;;;;;;;;;;;;;;0.31;72.86;100155.86;105171;1288;67823;-76
2023/03/05 08:30:01;;;;;;;;;;;;;;;0.36;72.91;100155.09;105002;1288;72348;-76
2023/03/05 08:32:48;;;;;;;;;;;;;;;0.41;72.83;100152.13;106075;1288;60198;-76
2023/03/05 08:35:34;;;;;;;;;;;;;;;0.44;72.89;100151.86;106103;1287;59866;-76
2023/03/05 08:38:20;;;;;;;;;;;;;;;0.49;73.01;100152.11;105435;1291;74396;-76
2023/03/05 08:41:06;;;;;;;;;;;;;;;0.55;72.94;100147.77;105208;1287;67213;-76
2023/03/05 08:43:52;;;;;;;;;;;;;;;0.61;72.93;100143.30;105120;1289;73341;-76
2023/03/05 08:46:39;;;;;;;;;;;;;;;0.65;72.95;100145.39;105163;1288;61967;-76
2023/03/05 08:49:25;;;;;;;;;;;;;;;0.70;72.98;100139.36;105129;1288;62016;-72
2023/03/05 08:52:11;;;;;;;;;;;;;;;0.77;73.06;100138.45;105140;1292;75484;-72
2023/03/05 08:54:57;;;;;;;;;;;;;;;0.83;73.03;100140.09;105096;1288;67865;-72
2023/03/05 08:57:43;;;;;;;;;;;;;;;0.89;73.10;100142.05;105208;1287;71267;-72
2023/03/05 09:00:29;;;;;;;;;;;;;;;0.95;73.09;100141.13;105157;1289;60246;-72
2023/03/05 09:03:15;;;;;;;;;;;;;;;1.01;73.07;100136.98;105290;1288;61885;-72
2023/03/05 09:06:03;;;;;;;;;;;;;;;1.07;73.23;100138.90;105159;1288;73965;-72
2023/03/05 09:08:49;;;;;;;;;;;;;;;1.13;73.07;100136.43;105104;1290;68379;-72
2023/03/05 09:11:35;;;;;;;;;;;;;;;1.19;73.10;100136.02;105216;1291;73568;-72
2023/03/05 09:14:21;;;;;;;;;;;;;;;1.23;73.14;100138.29;105185;1287;61957;-72
2023/03/05 09:17:07;;;;;;;;;;;;;;;1.27;73.21;100135.98;105241;1288;60400;-72
2023/03/05 09:19:54;;;;;;;;;;;;;;;1.31;73.08;100134.48;105228;1290;74050;-72
2023/03/05 09:22:40;;;;;;;;;;;;;;;1.36;73.15;100136.42;105189;1288;67506;-72
2023/03/05 09:25:26;;;;;;;;;;;;;;;1.43;73.20;100136.67;105193;1288;71294;-72
2023/03/05 09:28:12;;;;;;;;;;;;;;;1.49;73.12;100133.04;105148;1288;62552;-72
2023/03/05 09:31:02;;;;;;;;;;;;;;;1.53;73.06;100134.11;105108;1288;62131;-72
2023/03/05 09:33:48;;;;;;;;;;;;;;;1.59;73.11;100133.63;105134;1288;74867;-72
2023/03/05 09:36:34;;;;;;;;;;;;;;;1.65;73.08;100130.33;105135;1288;68604;-72
2023/03/05 09:39:20;;;;;;;;;;;;;;;1.69;72.99;100131.55;105188;1288;72663;-72
2023/03/05 09:42:23;;;;;;;;;;;;;;;1.73;72.97;100131.09;105147;1288;62129;-72
2023/03/05 09:45:09;;;;;;;;;;;;;;;1.75;72.94;100135.36;105154;1288;61952;-72
2023/03/05 09:48:11;;;;;;;;;;;;;;;1.79;72.91;100132.86;105111;1290;73996;-72
2023/03/05 09:50:57;;;;;;;;;;;;;;;1.87;72.89;100130.58;105136;1288;68409;-73
2023/03/05 09:53:49;;;;;;;;;;;;;;;1.95;72.96;100126.76;105168;1288;72716;-74
2023/03/05 09:56:38;;;;;;;;;;;;;;;2.06;72.96;100126.86;105146;1286;62106;-74
2023/03/05 09:59:24;;;;;;;;;;;;;;;2.18;72.91;100125.44;105093;1287;62663;-73
2023/03/05 10:02:14;;;;;;;;;;;;;;;2.25;72.84;100127.56;105152;1288;78308;-74
2023/03/05 10:05:13;;;;;;;;;;;;;;;2.31;72.80;100125.57;105007;1288;69997;-73
2023/03/05 10:08:02;;;;;;;;;;;;;;;2.43;72.76;100120.92;105090;1287;71391;-73
2023/03/05 10:10:52;;;;;;;;;;;;;;;2.52;72.75;100120.67;105111;1287;61885;-73
2023/03/05 10:13:39;;;;;;;;;;;;;;;2.62;72.65;100123.11;105186;1287;62085;-73
2023/03/05 10:16:51;;;;;;;;;;;;;;;2.70;72.60;100121.63;105182;1288;74918;-73
2023/03/05 10:19:53;;;;;;;;;;;;;;;2.76;72.35;100118.95;105105;1288;67444;-74
2023/03/05 10:22:54;;;;;;;;;;;;;;;2.77;72.42;100121.35;105152;1288;72414;-74
2023/03/05 10:25:40;;;;;;;;;;;;;;;2.90;72.58;100119.58;105141;1288;60633;-74
2023/03/05 10:28:33;;;;;;;;;;;;;;;3.00;72.50;100121.01;105090;1288;60712;-73
2023/03/05 10:31:48;;;;;;;;;;;;;;;3.09;72.53;100124.47;105161;1287;75769;-74
2023/03/05 10:35:09;;;;;;;;;;;;;;;3.22;72.50;100122.98;104549;1294;67447;-74
2023/03/05 10:38:04;;;;;;;;;;;;;;;3.27;72.00;100119.27;104065;1300;71796;-74
2023/03/05 10:40:59;;;;;;;;;;;;;;;3.24;72.26;100121.81;104040;1301;61050;-74
2023/03/05 10:43:54;;;;;;;;;;;;;;;3.19;72.36;100123.14;104111;1302;59806;-74
2023/03/05 10:46:40;;;;;;;;;;;;;;;3.14;72.02;100126.70;104009;1300;75831;-74
2023/03/05 10:49:33;;;;;;;;;;;;;;;3.08;72.14;100125.66;104079;1300;69213;-73
2023/03/05 10:52:27;;;;;;;;;;;;;;;3.09;72.29;100124.64;103939;1303;74566;-73
2023/03/05 10:55:17;;;;;;;;;;;;;;;3.06;72.06;100120.54;103963;1300;61957;-73
2023/03/05 10:58:15;;;;;;;;;;;;;;;2.97;72.07;100128.14;104042;1300;64519;-74
2023/03/05 11:01:03;;;;;;;;;;;;;;;2.90;72.13;100124.52;104079;1301;74225;-73
2023/03/05 11:03:56;;;;;;;;;;;;;;;2.81;71.84;100123.76;104045;1302;68412;-74
2023/03/05 11:06:44;;;;;;;;;;;;;;;2.73;71.94;100124.38;104072;1301;76903;-73
2023/03/05 11:09:33;;;;;;;;;;;;;;;2.72;71.84;100132.38;104083;1300;65025;-73
2023/03/05 11:12:25;;;;;;;;;;;;;;;2.66;71.81;100130.79;104909;1287;62829;-73
2023/03/05 11:15:11;;;;;;;;;;;;;;;2.62;71.92;100131.78;105011;1289;74083;-73
2023/03/05 11:18:05;;;;;;;;;;;;;;;2.64;71.97;100133.51;105091;1290;68307;-73
2023/03/05 11:20:51;;;;;;;;;;;;;;;2.63;71.89;100134.85;105160;1288;73596;-73
2023/03/05 11:23:37;;;;;;;;;;;;;;;2.66;71.94;100131.48;105124;1287;61805;-74
2023/03/05 11:26:24;;;;;;;;;;;;;;;2.68;71.77;100130.64;105132;1288;61946;-74
2023/03/05 11:29:16;;;;;;;;;;;;;;;2.68;71.72;100124.34;105088;1287;75691;-74
2023/03/05 11:32:14;;;;;;;;;;;;;;;2.70;71.85;100126.23;106181;1288;67522;-74
2023/03/05 11:35:00;;;;;;;;;;;;;;;2.75;71.64;100123.88;106044;1288;73390;-74
2023/03/05 11:37:58;;;;;;;;;;;;;;;2.70;71.57;100120.94;106197;1288;60117;-74
2023/03/05 11:40:44;;;;;;;;;;;;;;;2.65;71.59;100121.26;106218;1287;60157;-74
2023/03/05 11:43:33;;;;;;;;;;;;;;;2.65;71.68;100121.76;105956;1287;75716;-74
2023/03/05 11:46:19;;;;;;;;;;;;;;;2.66;71.66;100118.02;106161;1288;67363;-74
2023/03/05 11:49:07;;;;;;;;;;;;;;;2.65;71.46;100118.52;106209;1288;71190;-74
2023/03/05 11:52:06;;;;;;;;;;;;;;;2.64;71.61;100116.98;106060;1288;59918;-74
2023/03/05 11:55:04;;;;;;;;;;;;;;;2.63;71.35;100116.81;106075;1288;59975;-74
2023/03/05 11:58:05;;;;;;;;;;;;;;;2.64;71.40;100113.08;106159;1288;75138;-74
2023/03/05 12:00:51;;;;;;;;;;;;;;;2.63;71.42;100114.43;106148;1288;68442;-74
2023/03/05 12:03:37;;;;;;;;;;;;;;;2.68;71.54;100115.83;105929;1289;73588;-74
2023/03/05 12:06:23;;;;;;;;;;;;;;;2.73;71.42;100109.91;105924;1293;60122;-74
2023/03/05 12:09:12;;;;;;;;;;;;;;;2.80;71.46;100107.42;106173;1288;59844;-74
2023/03/05 12:12:05;;;;;;;;;;;;;;;2.84;71.44;100104.21;106094;1290;73923;-74
2023/03/05 12:15:03;;;;;;;;;;;;;;;2.86;71.39;100101.67;106178;1288;66188;-74
2023/03/05 12:18:05;;;;;;;;;;;;;;;2.87;71.33;100103.21;106194;1290;72609;-74
2023/03/05 12:20:57;;;;;;;;;;;;;;;2.91;71.30;100101.03;106129;1288;60406;-74
2023/03/05 12:23:51;;;;;;;;;;;;;;;2.94;71.28;100097.98;106103;1290;60271;-74
2023/03/05 12:26:52;;;;;;;;;;;;;;;2.97;71.15;100090.52;106083;1286;74138;-74
2023/03/05 12:29:38;;;;;;;;;;;;;;;2.99;71.23;100090.19;106187;1288;67553;-74
2023/03/05 12:32:24;;;;;;;;;;;;;;;3.03;71.12;100088.50;106182;1286;71271;-74
2023/03/05 12:35:22;;;;;;;;;;;;;;;3.10;71.23;100081.05;106156;1287;60209;-74
2023/03/05 12:38:38;;;;;;;;;;;;;;;3.24;71.27;100077.36;106127;1287;60168;-73
2023/03/05 12:41:44;;;;;;;;;;;;;;;3.38;71.23;100071.46;105345;1296;75159;-73
2023/03/05 12:44:30;;;;;;;;;;;;;;;3.44;70.99;100072.85;105037;1301;67533;-74
2023/03/05 12:47:18;;;;;;;;;;;;;;;3.46;70.86;100079.34;104867;1302;71931;-74
2023/03/05 12:50:04;;;;;;;;;;;;;;;3.51;70.91;100081.73;104814;1301;61643;-73
2023/03/05 12:52:51;;;;;;;;;;;;;;;3.46;70.64;100081.21;104877;1302;59850;-73
2023/03/05 12:55:39;;;;;;;;;;;;;;;3.39;70.59;100078.62;104953;1302;74216;-73
2023/03/05 12:58:44;;;;;;;;;;;;;;;3.39;70.68;100081.69;104950;1302;68842;-73
2023/03/05 13:01:44;;;;;;;;;;;;;;;3.27;70.28;100077.54;104968;1301;71336;-73
2023/03/05 13:04:32;;;;;;;;;;;;;;;3.20;70.65;100076.15;104885;1302;60223;-73
2023/03/05 13:07:18;;;;;;;;;;;;;;;3.23;70.59;100069.52;104789;1303;60420;-73
2023/03/05 13:10:05;;;;;;;;;;;;;;;3.18;70.26;100068.46;104846;1302;75391;-73
2023/03/05 13:12:52;;;;;;;;;;;;;;;3.14;70.55;100072.02;104830;1305;69467;-73
2023/03/05 13:15:38;;;;;;;;;;;;;;;3.11;70.45;100075.27;104905;1302;72430;-74
2023/03/05 13:18:25;;;;;;;;;;;;;;;3.07;70.46;100069.98;105334;1294;59749;-73
2023/03/05 13:21:15;;;;;;;;;;;;;;;3.01;70.32;100069.25;105644;1288;60132;-73
2023/03/05 13:24:02;;;;;;;;;;;;;;;2.98;70.15;100071.11;105987;1288;75510;-74
2023/03/05 13:26:48;;;;;;;;;;;;;;;2.98;70.19;100069.23;106102;1288;67324;-74
2023/03/05 13:29:48;;;;;;;;;;;;;;;3.01;70.19;100067.55;106094;1288;72933;-74
2023/03/05 13:32:34;;;;;;;;;;;;;;;3.07;70.17;100069.46;106087;1287;59730;-74
2023/03/05 13:35:21;;;;;;;;;;;;;;;3.13;70.08;100067.60;106039;1287;59937;-74
2023/03/05 13:38:18;;;;;;;;;;;;;;;3.15;70.04;100067.95;105455;1287;76089;-74
2023/03/05 13:41:07;;;;;;;;;;;;;;;3.12;69.77;100066.23;105192;1290;67547;-74
2023/03/05 13:43:54;;;;;;;;;;;;;;;3.09;69.87;100060.45;105121;1287;71419;-74
2023/03/05 13:46:41;;;;;;;;;;;;;;;3.08;69.78;100058.56;105137;1288;62083;-74
2023/03/05 13:49:27;;;;;;;;;;;;;;;3.06;69.67;100055.66;105146;1294;62948;-74
2023/03/05 13:52:23;;;;;;;;;;;;;;;3.06;69.64;100053.27;105013;1287;73908;-74
2023/03/05 13:55:15;;;;;;;;;;;;;;;3.04;69.59;100052.41;105037;1291;68480;-74
2023/03/05 13:58:02;;;;;;;;;;;;;;;2.99;69.53;100057.16;105120;1288;71072;-74
2023/03/05 14:00:48;;;;;;;;;;;;;;;2.95;69.60;100056.96;104997;1288;62048;-74
2023/03/05 14:03:34;;;;;;;;;;;;;;;2.91;69.56;100051.66;105160;1288;62433;-74
2023/03/05 14:06:21;;;;;;;;;;;;;;;2.88;69.51;100048.41;105010;1287;76836;-74
2023/03/05 14:09:17;;;;;;;;;;;;;;;2.86;69.56;100047.88;104947;1291;67293;-74
2023/03/05 14:12:04;;;;;;;;;;;;;;;2.87;69.57;100048.07;104994;1288;72131;-74
2023/03/05 14:14:51;;;;;;;;;;;;;;;2.89;69.77;100042.29;104987;1288;62210;-74
2023/03/05 14:17:37;;;;;;;;;;;;;;;2.89;69.81;100038.55;105044;1287;61978;-74